sensor_id;sensor_type;location;lat;lon;timestamp;pressure;altitude;pressure_sealevel;temperature;humidity
86143;BME280;76799;50.146;22.704;2024-03-02T00:00:18;99328.47;;;7.64;87.29
86143;BME280;76799;50.146;22.704;2024-03-02T00:02:47;99332.59;;;7.66;87.43
86143;BME280;76799;50.146;22.704;2024-03-02T00:05:15;99324.84;;;7.65;87.22
86143;BME280;76799;50.146;22.704;2024-03-02T00:07:46;99325.66;;;7.65;86.97
86143;BME280;76799;50.146;22.704;2024-03-02T00:10:16;99323.34;;;7.63;87.32
86143;BME280;76799;50.146;22.704;2024-03-02T00:12:42;99324.34;;;7.62;87.35
86143;BME280;76799;50.146;22.704;2024-03-02T00:15:47;99326.28;;;7.60;87.54
86143;BME280;76799;50.146;22.704;2024-03-02T00:18:20;99331.56;;;7.60;87.49
86143;BME280;76799;50.146;22.704;2024-03-02T00:20:46;99325.16;;;7.62;87.10
86143;BME280;76799;50.146;22.704;2024-03-02T00:23:14;99319.88;;;7.62;87.37
86143;BME280;76799;50.146;22.704;2024-03-02T00:25:44;99321.03;;;7.60;87.54
86143;BME280;76799;50.146;22.704;2024-03-02T00:28:17;99323.66;;;7.60;87.69
86143;BME280;76799;50.146;22.704;2024-03-02T00:33:08;99329.91;;;7.59;87.65
86143;BME280;76799;50.146;22.704;2024-03-02T00:35:35;99334.03;;;7.61;87.35
86143;BME280;76799;50.146;22.704;2024-03-02T00:38:05;99333.44;;;7.67;87.22
86143;BME280;76799;50.146;22.704;2024-03-02T00:40:31;99325.34;;;7.68;87.05
86143;BME280;76799;50.146;22.704;2024-03-02T00:42:57;99329.81;;;7.68;87.13
86143;BME280;76799;50.146;22.704;2024-03-02T00:45:22;99324.38;;;7.69;86.85
86143;BME280;76799;50.146;22.704;2024-03-02T00:47:50;99314.81;;;7.68;86.98
86143;BME280;76799;50.146;22.704;2024-03-02T00:50:15;99315.13;;;7.65;87.53
86143;BME280;76799;50.146;22.704;2024-03-02T00:52:41;99318.75;;;7.64;87.21
86143;BME280;76799;50.146;22.704;2024-03-02T00:55:07;99316.75;;;7.66;87.33
86143;BME280;76799;50.146;22.704;2024-03-02T00:57:34;99303.44;;;7.68;86.84
86143;BME280;76799;50.146;22.704;2024-03-02T01:00:00;99290.41;;;7.66;87.13
86143;BME280;76799;50.146;22.704;2024-03-02T01:02:25;99297.97;;;7.62;87.47
86143;BME280;76799;50.146;22.704;2024-03-02T01:04:50;99301.94;;;7.65;87.23
86143;BME280;76799;50.146;22.704;2024-03-02T01:07:16;99285.47;;;7.63;87.28
86143;BME280;76799;50.146;22.704;2024-03-02T01:09:41;99289.69;;;7.57;87.67
86143;BME280;76799;50.146;22.704;2024-03-02T01:12:07;99296.31;;;7.61;87.50
86143;BME280;76799;50.146;22.704;2024-03-02T01:14:32;99276.22;;;7.60;87.87
86143;BME280;76799;50.146;22.704;2024-03-02T01:16:57;99283.81;;;7.63;87.23
86143;BME280;76799;50.146;22.704;2024-03-02T01:19:23;99289.41;;;7.60;87.69
86143;BME280;76799;50.146;22.704;2024-03-02T01:21:48;99277.19;;;7.59;87.91
86143;BME280;76799;50.146;22.704;2024-03-02T01:24:15;99270.28;;;7.58;87.70
86143;BME280;76799;50.146;22.704;2024-03-02T01:26:41;99273.56;;;7.60;87.46
86143;BME280;76799;50.146;22.704;2024-03-02T01:29:07;99279.53;;;7.62;87.19
86143;BME280;76799;50.146;22.704;2024-03-02T01:31:33;99274.69;;;7.57;87.87
86143;BME280;76799;50.146;22.704;2024-03-02T01:33:58;99276.03;;;7.61;87.87
86143;BME280;76799;50.146;22.704;2024-03-02T01:36:23;99267.47;;;7.59;87.83
86143;BME280;76799;50.146;22.704;2024-03-02T01:38:49;99258.56;;;7.60;87.71
86143;BME280;76799;50.146;22.704;2024-03-02T01:41:15;99251.66;;;7.59;87.57
86143;BME280;76799;50.146;22.704;2024-03-02T01:43:40;99258.88;;;7.57;87.97
86143;BME280;76799;50.146;22.704;2024-03-02T01:46:05;99256.09;;;7.59;87.63
86143;BME280;76799;50.146;22.704;2024-03-02T01:48:31;99253.63;;;7.57;87.58
86143;BME280;76799;50.146;22.704;2024-03-02T01:50:56;99252.25;;;7.53;87.77
86143;BME280;76799;50.146;22.704;2024-03-02T01:53:22;99259.56;;;7.59;87.74
86143;BME280;76799;50.146;22.704;2024-03-02T01:55:48;99254.75;;;7.55;88.16
86143;BME280;76799;50.146;22.704;2024-03-02T01:58:14;99251.44;;;7.53;87.88
86143;BME280;76799;50.146;22.704;2024-03-02T02:00:39;99250.00;;;7.58;87.63
86143;BME280;76799;50.146;22.704;2024-03-02T02:03:05;99249.19;;;7.58;87.86
86143;BME280;76799;50.146;22.704;2024-03-02T02:05:32;99259.72;;;7.58;87.85
86143;BME280;76799;50.146;22.704;2024-03-02T02:07:57;99247.84;;;7.54;87.90
86143;BME280;76799;50.146;22.704;2024-03-02T02:10:23;99242.88;;;7.51;88.25
86143;BME280;76799;50.146;22.704;2024-03-02T02:12:49;99246.50;;;7.50;88.32
86143;BME280;76799;50.146;22.704;2024-03-02T02:15:30;99250.09;;;7.49;87.77
86143;BME280;76799;50.146;22.704;2024-03-02T02:17:57;99240.38;;;7.49;88.31
86143;BME280;76799;50.146;22.704;2024-03-02T02:20:22;99247.84;;;7.54;87.85
86143;BME280;76799;50.146;22.704;2024-03-02T02:22:59;99237.59;;;7.51;87.84
86143;BME280;76799;50.146;22.704;2024-03-02T02:25:25;99245.19;;;7.54;88.17
86143;BME280;76799;50.146;22.704;2024-03-02T02:27:51;99243.06;;;7.57;87.97
86143;BME280;76799;50.146;22.704;2024-03-02T02:30:21;99239.25;;;7.52;88.14
86143;BME280;76799;50.146;22.704;2024-03-02T02:32:47;99237.28;;;7.54;87.78
86143;BME280;76799;50.146;22.704;2024-03-02T02:35:12;99232.03;;;7.54;87.63
86143;BME280;76799;50.146;22.704;2024-03-02T02:37:38;99236.63;;;7.52;87.84
86143;BME280;76799;50.146;22.704;2024-03-02T02:40:04;99232.03;;;7.54;87.98
86143;BME280;76799;50.146;22.704;2024-03-02T02:42:30;99225.41;;;7.50;87.92
86143;BME280;76799;50.146;22.704;2024-03-02T02:44:55;99232.69;;;7.56;88.05
86143;BME280;76799;50.146;22.704;2024-03-02T02:47:20;99236.16;;;7.56;87.80
86143;BME280;76799;50.146;22.704;2024-03-02T02:49:46;99226.75;;;7.54;87.81
86143;BME280;76799;50.146;22.704;2024-03-02T02:52:11;99230.38;;;7.53;87.95
86143;BME280;76799;50.146;22.704;2024-03-02T02:54:37;99225.91;;;7.53;87.76
86143;BME280;76799;50.146;22.704;2024-03-02T02:57:02;99229.06;;;7.57;87.94
86143;BME280;76799;50.146;22.704;2024-03-02T02:59:28;99234.34;;;7.57;87.82
86143;BME280;76799;50.146;22.704;2024-03-02T03:01:53;99226.44;;;7.57;87.72
86143;BME280;76799;50.146;22.704;2024-03-02T03:04:19;99222.16;;;7.56;87.78
86143;BME280;76799;50.146;22.704;2024-03-02T03:06:44;99218.38;;;7.58;87.77
86143;BME280;76799;50.146;22.704;2024-03-02T03:09:11;99210.63;;;7.57;87.78
86143;BME280;76799;50.146;22.704;2024-03-02T03:11:36;99210.63;;;7.57;87.75
86143;BME280;76799;50.146;22.704;2024-03-02T03:14:02;99214.25;;;7.56;87.87
86143;BME280;76799;50.146;22.704;2024-03-02T03:16:28;99204.69;;;7.55;88.05
86143;BME280;76799;50.146;22.704;2024-03-02T03:18:53;99207.63;;;7.52;87.92
86143;BME280;76799;50.146;22.704;2024-03-02T03:21:18;99201.00;;;7.48;88.32
86143;BME280;76799;50.146;22.704;2024-03-02T03:23:44;99216.50;;;7.51;88.05
86143;BME280;76799;50.146;22.704;2024-03-02T03:26:09;99209.59;;;7.50;87.91
86143;BME280;76799;50.146;22.704;2024-03-02T03:28:35;99207.94;;;7.49;88.39
86143;BME280;76799;50.146;22.704;2024-03-02T03:31:00;99207.09;;;7.48;88.01
86143;BME280;76799;50.146;22.704;2024-03-02T03:33:25;99217.50;;;7.50;87.94
86143;BME280;76799;50.146;22.704;2024-03-02T03:35:50;99207.31;;;7.55;87.78
86143;BME280;76799;50.146;22.704;2024-03-02T03:38:16;99207.78;;;7.50;88.33
86143;BME280;76799;50.146;22.704;2024-03-02T03:40:41;99192.50;;;7.54;87.54
86143;BME280;76799;50.146;22.704;2024-03-02T03:43:07;99198.75;;;7.53;88.04
86143;BME280;76799;50.146;22.704;2024-03-02T03:45:32;99208.81;;;7.57;87.91
86143;BME280;76799;50.146;22.704;2024-03-02T03:47:57;99207.31;;;7.55;88.06
86143;BME280;76799;50.146;22.704;2024-03-02T03:50:23;99203.16;;;7.52;87.97
86143;BME280;76799;50.146;22.704;2024-03-02T03:52:48;99200.41;;;7.54;88.19
86143;BME280;76799;50.146;22.704;2024-03-02T03:55:13;99208.59;;;7.51;88.32
86143;BME280;76799;50.146;22.704;2024-03-02T03:57:39;99208.31;;;7.54;88.08
86143;BME280;76799;50.146;22.704;2024-03-02T04:00:04;99203.47;;;7.49;88.39
86143;BME280;76799;50.146;22.704;2024-03-02T04:02:30;99212.91;;;7.52;87.97
86143;BME280;76799;50.146;22.704;2024-03-02T04:04:55;99219.59;;;7.46;88.55
86143;BME280;76799;50.146;22.704;2024-03-02T04:07:21;99212.22;;;7.50;88.28
86143;BME280;76799;50.146;22.704;2024-03-02T04:09:46;99208.75;;;7.49;88.14
86143;BME280;76799;50.146;22.704;2024-03-02T04:12:11;99207.41;;;7.45;88.64
86143;BME280;76799;50.146;22.704;2024-03-02T04:14:38;99209.59;;;7.50;88.34
86143;BME280;76799;50.146;22.704;2024-03-02T04:17:03;99208.75;;;7.49;88.26
86143;BME280;76799;50.146;22.704;2024-03-02T04:19:28;99207.63;;;7.52;88.13
86143;BME280;76799;50.146;22.704;2024-03-02T04:21:54;99205.66;;;7.54;87.83
86143;BME280;76799;50.146;22.704;2024-03-02T04:24:19;99201.00;;;7.48;88.55
86143;BME280;76799;50.146;22.704;2024-03-02T04:26:45;99201.81;;;7.48;88.79
86143;BME280;76799;50.146;22.704;2024-03-02T04:29:10;99204.16;;;7.51;88.20
86143;BME280;76799;50.146;22.704;2024-03-02T04:31:35;99202.34;;;7.52;88.42
86143;BME280;76799;50.146;22.704;2024-03-02T04:34:01;99198.25;;;7.57;88.15
86143;BME280;76799;50.146;22.704;2024-03-02T04:36:26;99189.00;;;7.53;88.00
86143;BME280;76799;50.146;22.704;2024-03-02T04:38:51;99196.09;;;7.53;88.17
86143;BME280;76799;50.146;22.704;2024-03-02T04:41:17;99193.31;;;7.54;87.95
86143;BME280;76799;50.146;22.704;2024-03-02T04:43:42;99197.09;;;7.52;88.44
86143;BME280;76799;50.146;22.704;2024-03-02T04:46:07;99193.78;;;7.50;88.70
86143;BME280;76799;50.146;22.704;2024-03-02T04:48:33;99197.44;;;7.57;88.01
86143;BME280;76799;50.146;22.704;2024-03-02T04:50:59;99194.50;;;7.60;87.72
86143;BME280;76799;50.146;22.704;2024-03-02T04:53:24;99197.81;;;7.62;87.11
86143;BME280;76799;50.146;22.704;2024-03-02T04:55:50;99197.81;;;7.62;87.51
86143;BME280;76799;50.146;22.704;2024-03-02T04:58:54;99195.00;;;7.63;87.48
86143;BME280;76799;50.146;22.704;2024-03-02T05:01:19;99208.13;;;7.55;88.10
86143;BME280;76799;50.146;22.704;2024-03-02T05:03:44;99195.13;;;7.54;88.34
86143;BME280;76799;50.146;22.704;2024-03-02T05:06:10;99198.13;;;7.59;87.86
86143;BME280;76799;50.146;22.704;2024-03-02T05:08:35;99197.59;;;7.55;88.09
86143;BME280;76799;50.146;22.704;2024-03-02T05:11:00;99191.66;;;7.53;88.06
86143;BME280;76799;50.146;22.704;2024-03-02T05:13:46;99190.66;;;7.54;88.02
86143;BME280;76799;50.146;22.704;2024-03-02T05:16:11;99196.41;;;7.50;88.41
86143;BME280;76799;50.146;22.704;2024-03-02T05:18:37;99198.06;;;7.51;88.22
86143;BME280;76799;50.146;22.704;2024-03-02T05:21:03;99204.31;;;7.50;88.28
86143;BME280;76799;50.146;22.704;2024-03-02T05:23:28;99203.03;;;7.54;87.93
86143;BME280;76799;50.146;22.704;2024-03-02T05:25:54;99207.31;;;7.55;88.21
86143;BME280;76799;50.146;22.704;2024-03-02T05:28:19;99206.78;;;7.51;88.33
86143;BME280;76799;50.146;22.704;2024-03-02T05:30:44;99215.06;;;7.56;88.01
86143;BME280;76799;50.146;22.704;2024-03-02T05:33:10;99215.38;;;7.53;88.22
86143;BME280;76799;50.146;22.704;2024-03-02T05:35:35;99228.09;;;7.58;88.18
86143;BME280;76799;50.146;22.704;2024-03-02T05:38:00;99226.75;;;7.54;88.53
86143;BME280;76799;50.146;22.704;2024-03-02T05:40:26;99237.28;;;7.54;88.45
86143;BME280;76799;50.146;22.704;2024-03-02T05:42:51;99237.28;;;7.54;88.17
86143;BME280;76799;50.146;22.704;2024-03-02T05:45:16;99228.53;;;7.53;88.40
86143;BME280;76799;50.146;22.704;2024-03-02T05:47:41;99232.69;;;7.56;87.99
86143;BME280;76799;50.146;22.704;2024-03-02T05:50:07;99232.03;;;7.54;88.81
86143;BME280;76799;50.146;22.704;2024-03-02T05:52:32;99242.56;;;7.54;88.51
86143;BME280;76799;50.146;22.704;2024-03-02T05:54:58;99234.50;;;7.55;88.62
86143;BME280;76799;50.146;22.704;2024-03-02T05:57:24;99235.16;;;7.57;88.32
86143;BME280;76799;50.146;22.704;2024-03-02T06:00:18;99240.59;;;7.56;88.35
86143;BME280;76799;50.146;22.704;2024-03-02T06:02:43;99223.13;;;7.55;88.79
86143;BME280;76799;50.146;22.704;2024-03-02T06:05:09;99231.41;;;7.60;88.20
86143;BME280;76799;50.146;22.704;2024-03-02T06:07:34;99233.06;;;7.61;88.38
86143;BME280;76799;50.146;22.704;2024-03-02T06:10:00;99232.75;;;7.63;88.15
86143;BME280;76799;50.146;22.704;2024-03-02T06:12:25;99237.69;;;7.66;87.75
86143;BME280;76799;50.146;22.704;2024-03-02T06:14:50;99244.09;;;7.64;87.97
86143;BME280;76799;50.146;22.704;2024-03-02T06:17:16;99235.22;;;7.65;87.98
86143;BME280;76799;50.146;22.704;2024-03-02T06:19:41;99234.06;;;7.67;88.19
86143;BME280;76799;50.146;22.704;2024-03-02T06:22:06;99238.66;;;7.65;88.10
86143;BME280;76799;50.146;22.704;2024-03-02T06:24:36;99247.25;;;7.67;87.90
86143;BME280;76799;50.146;22.704;2024-03-02T06:27:01;99249.06;;;7.67;88.06
86143;BME280;76799;50.146;22.704;2024-03-02T06:29:27;99251.53;;;7.68;87.69
86143;BME280;76799;50.146;22.704;2024-03-02T06:31:52;99250.56;;;7.69;87.70
86143;BME280;76799;50.146;22.704;2024-03-02T06:34:17;99254.03;;;7.70;88.11
86143;BME280;76799;50.146;22.704;2024-03-02T06:36:43;99255.69;;;7.71;87.54
86143;BME280;76799;50.146;22.704;2024-03-02T06:39:08;99241.53;;;7.72;87.67
86143;BME280;76799;50.146;22.704;2024-03-02T06:41:34;99242.34;;;7.72;87.63
86143;BME280;76799;50.146;22.704;2024-03-02T06:43:59;99249.44;;;7.72;87.90
86143;BME280;76799;50.146;22.704;2024-03-02T06:46:27;99238.53;;;7.67;88.26
86143;BME280;76799;50.146;22.704;2024-03-02T06:48:53;99241.00;;;7.68;88.25
86143;BME280;76799;50.146;22.704;2024-03-02T06:51:18;99241.00;;;7.68;88.42
86143;BME280;76799;50.146;22.704;2024-03-02T06:53:44;99240.69;;;7.71;88.29
86143;BME280;76799;50.146;22.704;2024-03-02T06:56:09;99246.63;;;7.73;88.41
86143;BME280;76799;50.146;22.704;2024-03-02T06:58:34;99249.13;;;7.75;88.36
86143;BME280;76799;50.146;22.704;2024-03-02T07:01:00;99246.69;;;7.81;87.72
86143;BME280;76799;50.146;22.704;2024-03-02T07:03:28;99244.03;;;7.81;88.38
86143;BME280;76799;50.146;22.704;2024-03-02T07:05:53;99256.56;;;7.79;88.21
86143;BME280;76799;50.146;22.704;2024-03-02T07:08:19;99251.81;;;7.83;87.94
86143;BME280;76799;50.146;22.704;2024-03-02T07:10:44;99251.66;;;7.84;87.78
86143;BME280;76799;50.146;22.704;2024-03-02T07:13:09;99252.31;;;7.86;87.85
86143;BME280;76799;50.146;22.704;2024-03-02T07:15:35;99251.34;;;7.87;87.85
86143;BME280;76799;50.146;22.704;2024-03-02T07:18:30;99255.00;;;7.94;87.02
86143;BME280;76799;50.146;22.704;2024-03-02T07:20:59;99251.25;;;7.97;86.78
86143;BME280;76799;50.146;22.704;2024-03-02T07:23:29;99252.59;;;8.01;87.35
86143;BME280;76799;50.146;22.704;2024-03-02T07:25:55;99253.56;;;8.00;87.40
86143;BME280;76799;50.146;22.704;2024-03-02T07:28:25;99261.84;;;8.05;87.60
86143;BME280;76799;50.146;22.704;2024-03-02T07:31:00;99263.63;;;8.04;87.41
86143;BME280;76799;50.146;22.704;2024-03-02T07:33:26;99266.81;;;8.08;86.84
86143;BME280;76799;50.146;22.704;2024-03-02T07:35:51;99270.44;;;8.07;86.95
86143;BME280;76799;50.146;22.704;2024-03-02T07:38:17;99268.91;;;8.04;87.84
86143;BME280;76799;50.146;22.704;2024-03-02T07:40:42;99267.13;;;8.05;87.46
86143;BME280;76799;50.146;22.704;2024-03-02T07:43:08;99266.63;;;8.09;87.18
86143;BME280;76799;50.146;22.704;2024-03-02T07:45:33;99259.41;;;8.11;86.84
86143;BME280;76799;50.146;22.704;2024-03-02T07:48:01;99262.56;;;8.15;87.13
86143;BME280;76799;50.146;22.704;2024-03-02T07:50:26;99251.84;;;8.16;86.82
86143;BME280;76799;50.146;22.704;2024-03-02T07:52:52;99261.28;;;8.19;87.33
86143;BME280;76799;50.146;22.704;2024-03-02T07:55:17;99261.13;;;8.20;86.57
86143;BME280;76799;50.146;22.704;2024-03-02T07:57:43;99259.31;;;8.21;86.85
86143;BME280;76799;50.146;22.704;2024-03-02T08:00:09;99261.78;;;8.22;86.61
86143;BME280;76799;50.146;22.704;2024-03-02T08:02:34;99256.19;;;8.25;86.30
86143;BME280;76799;50.146;22.704;2024-03-02T08:05:00;99257.03;;;8.26;86.53
86143;BME280;76799;50.146;22.704;2024-03-02T08:07:26;99248.94;;;8.27;86.62
86143;BME280;76799;50.146;22.704;2024-03-02T08:09:51;99258.38;;;8.30;86.32
86143;BME280;76799;50.146;22.704;2024-03-02T08:12:17;99261.03;;;8.30;86.34
86143;BME280;76799;50.146;22.704;2024-03-02T08:14:43;99263.34;;;8.33;85.92
86143;BME280;76799;50.146;22.704;2024-03-02T08:17:08;99265.44;;;8.29;86.11
86143;BME280;76799;50.146;22.704;2024-03-02T08:19:36;99267.47;;;8.35;85.61
86143;BME280;76799;50.146;22.704;2024-03-02T08:22:01;99263.16;;;8.34;85.96
86143;BME280;76799;50.146;22.704;2024-03-02T08:24:27;99267.16;;;8.38;85.92
86143;BME280;76799;50.146;22.704;2024-03-02T08:26:52;99263.38;;;8.41;85.92
86143;BME280;76799;50.146;22.704;2024-03-02T08:29:18;99268.47;;;8.42;85.83
86143;BME280;76799;50.146;22.704;2024-03-02T08:31:43;99266.50;;;8.44;85.62
86143;BME280;76799;50.146;22.704;2024-03-02T08:34:08;99265.72;;;8.52;85.65
86143;BME280;76799;50.146;22.704;2024-03-02T08:36:34;99264.56;;;8.54;85.22
86143;BME280;76799;50.146;22.704;2024-03-02T08:38:59;99258.00;;;8.58;85.24
86143;BME280;76799;50.146;22.704;2024-03-02T08:41:25;99263.28;;;8.58;84.61
86143;BME280;76799;50.146;22.704;2024-03-02T08:43:50;99257.66;;;8.61;85.12
86143;BME280;76799;50.146;22.704;2024-03-02T08:46:16;99259.66;;;8.67;85.14
86143;BME280;76799;50.146;22.704;2024-03-02T08:48:41;99258.19;;;8.65;84.59
86143;BME280;76799;50.146;22.704;2024-03-02T08:51:06;99264.28;;;8.65;84.32
86143;BME280;76799;50.146;22.704;2024-03-02T08:53:33;99274.53;;;8.68;84.39
86143;BME280;76799;50.146;22.704;2024-03-02T08:55:59;99268.22;;;8.61;84.48
86143;BME280;76799;50.146;22.704;2024-03-02T08:58:24;99276.34;;;8.68;84.45
86143;BME280;76799;50.146;22.704;2024-03-02T09:00:50;99272.88;;;8.67;84.47
86143;BME280;76799;50.146;22.704;2024-03-02T09:03:15;99281.47;;;8.69;84.46
86143;BME280;76799;50.146;22.704;2024-03-02T09:05:41;99276.69;;;8.73;84.42
86143;BME280;76799;50.146;22.704;2024-03-02T09:08:08;99287.75;;;8.76;85.03
86143;BME280;76799;50.146;22.704;2024-03-02T09:10:33;99295.03;;;8.82;84.95
86143;BME280;76799;50.146;22.704;2024-03-02T09:12:59;99296.03;;;8.81;85.03
86143;BME280;76799;50.146;22.704;2024-03-02T09:15:24;99296.03;;;8.81;84.97
86143;BME280;76799;50.146;22.704;2024-03-02T09:17:50;99297.69;;;8.82;84.29
86143;BME280;76799;50.146;22.704;2024-03-02T09:20:15;99292.59;;;8.89;84.62
86143;BME280;76799;50.146;22.704;2024-03-02T09:22:41;99298.38;;;8.92;84.84
86143;BME280;76799;50.146;22.704;2024-03-02T09:25:07;99288.97;;;8.90;84.57
86143;BME280;76799;50.146;22.704;2024-03-02T09:27:36;99282.84;;;8.89;84.39
86143;BME280;76799;50.146;22.704;2024-03-02T09:30:02;99290.94;;;8.88;84.70
86143;BME280;76799;50.146;22.704;2024-03-02T09:32:27;99290.78;;;8.89;84.70
86143;BME280;76799;50.146;22.704;2024-03-02T09:34:53;99289.47;;;8.93;84.51
86143;BME280;76799;50.146;22.704;2024-03-02T09:37:18;99296.41;;;8.94;84.82
86143;BME280;76799;50.146;22.704;2024-03-02T09:39:44;99286.50;;;8.96;85.06
86143;BME280;76799;50.146;22.704;2024-03-02T09:42:10;99299.06;;;9.02;84.42
86143;BME280;76799;50.146;22.704;2024-03-02T09:44:36;99299.06;;;9.02;84.68
86143;BME280;76799;50.146;22.704;2024-03-02T09:47:02;99299.72;;;9.04;84.87
86143;BME280;76799;50.146;22.704;2024-03-02T09:49:27;99301.06;;;9.08;85.22
86143;BME280;76799;50.146;22.704;2024-03-02T09:51:53;99302.56;;;9.10;85.11
86143;BME280;76799;50.146;22.704;2024-03-02T09:54:19;99293.66;;;9.11;84.56
86143;BME280;76799;50.146;22.704;2024-03-02T09:56:44;99282.56;;;9.16;84.46
86143;BME280;76799;50.146;22.704;2024-03-02T09:59:10;99286.88;;;9.17;84.27
86143;BME280;76799;50.146;22.704;2024-03-02T10:01:35;99286.56;;;9.20;84.76
86143;BME280;76799;50.146;22.704;2024-03-02T10:04:01;99285.56;;;9.21;84.76
86143;BME280;76799;50.146;22.704;2024-03-02T10:06:28;99282.94;;;9.29;84.65
86143;BME280;76799;50.146;22.704;2024-03-02T10:08:54;99280.28;;;9.29;84.32
86143;BME280;76799;50.146;22.704;2024-03-02T10:11:31;99284.09;;;9.34;84.02
86143;BME280;76799;50.146;22.704;2024-03-02T10:16:40;99286.25;;;9.39;83.48
86143;BME280;76799;50.146;22.704;2024-03-02T10:21:44;99283.13;;;9.43;83.29
86143;BME280;76799;50.146;22.704;2024-03-02T10:24:10;99286.56;;;9.44;83.32
86143;BME280;76799;50.146;22.704;2024-03-02T10:26:35;99287.75;;;9.49;82.89
86143;BME280;76799;50.146;22.704;2024-03-02T10:29:01;99291.06;;;9.51;82.88
86143;BME280;76799;50.146;22.704;2024-03-02T10:31:27;99290.22;;;9.51;82.38
86143;BME280;76799;50.146;22.704;2024-03-02T10:33:57;99285.59;;;9.53;82.58
86143;BME280;76799;50.146;22.704;2024-03-02T10:36:23;99287.75;;;9.49;82.61
86143;BME280;76799;50.146;22.704;2024-03-02T10:38:49;99288.25;;;9.53;82.54
86143;BME280;76799;50.146;22.704;2024-03-02T10:41:18;99282.94;;;9.53;82.37
86143;BME280;76799;50.146;22.704;2024-03-02T10:43:44;99276.84;;;9.52;82.42
86143;BME280;76799;50.146;22.704;2024-03-02T10:46:11;99279.31;;;9.54;82.73
86143;BME280;76799;50.146;22.704;2024-03-02T10:48:39;99278.66;;;9.60;82.27
86143;BME280;76799;50.146;22.704;2024-03-02T10:51:06;99277.84;;;9.59;82.07
86143;BME280;76799;50.146;22.704;2024-03-02T10:53:32;99272.03;;;9.64;82.08
86143;BME280;76799;50.146;22.704;2024-03-02T10:55:58;99273.38;;;9.60;82.86
86143;BME280;76799;50.146;22.704;2024-03-02T10:58:31;99271.88;;;9.65;82.91
86143;BME280;76799;50.146;22.704;2024-03-02T11:01:02;99277.66;;;9.69;82.51
86143;BME280;76799;50.146;22.704;2024-03-02T11:03:29;99272.03;;;9.72;82.42
86143;BME280;76799;50.146;22.704;2024-03-02T11:05:57;99272.03;;;9.72;82.35
86143;BME280;76799;50.146;22.704;2024-03-02T11:08:24;99276.66;;;9.78;81.81
86143;BME280;76799;50.146;22.704;2024-03-02T11:10:56;99278.50;;;9.85;82.14
86143;BME280;76799;50.146;22.704;2024-03-02T11:13:27;99275.84;;;9.93;81.97
86143;BME280;76799;50.146;22.704;2024-03-02T11:15:59;99281.25;;;10.00;81.88
86143;BME280;76799;50.146;22.704;2024-03-02T11:18:29;99280.63;;;10.06;81.60
86143;BME280;76799;50.146;22.704;2024-03-02T11:20:55;99276.31;;;10.13;81.04
86143;BME280;76799;50.146;22.704;2024-03-02T11:23:32;99285.03;;;10.21;80.77
86143;BME280;76799;50.146;22.704;2024-03-02T11:26:30;99282.09;;;10.16;79.98
86143;BME280;76799;50.146;22.704;2024-03-02T11:29:03;99279.28;;;10.18;80.12
86143;BME280;76799;50.146;22.704;2024-03-02T11:31:58;99276.47;;;10.19;80.87
86143;BME280;76799;50.146;22.704;2024-03-02T11:34:35;99278.94;;;10.21;80.22
86143;BME280;76799;50.146;22.704;2024-03-02T11:37:04;99284.56;;;10.18;79.97
86143;BME280;76799;50.146;22.704;2024-03-02T11:39:30;99282.25;;;10.23;79.60
86143;BME280;76799;50.146;22.704;2024-03-02T11:41:58;99271.00;;;10.21;79.88
86143;BME280;76799;50.146;22.704;2024-03-02T11:44:26;99278.94;;;10.21;79.85
86143;BME280;76799;50.146;22.704;2024-03-02T11:46:52;99264.38;;;10.24;80.07
86143;BME280;76799;50.146;22.704;2024-03-02T11:49:44;99272.28;;;10.32;80.29
86143;BME280;76799;50.146;22.704;2024-03-02T11:52:12;99270.28;;;10.34;79.46
86143;BME280;76799;50.146;22.704;2024-03-02T11:54:40;99266.00;;;10.33;79.57
86143;BME280;76799;50.146;22.704;2024-03-02T11:57:06;99272.59;;;10.37;79.72
86143;BME280;76799;50.146;22.704;2024-03-02T11:59:33;99271.25;;;10.41;79.48
86143;BME280;76799;50.146;22.704;2024-03-02T12:01:59;99278.22;;;10.42;78.92
86143;BME280;76799;50.146;22.704;2024-03-02T12:04:25;99272.91;;;10.42;78.95
86143;BME280;76799;50.146;22.704;2024-03-02T12:06:55;99263.66;;;10.38;78.83
86143;BME280;76799;50.146;22.704;2024-03-02T12:09:21;99267.13;;;10.39;79.10
86143;BME280;76799;50.146;22.704;2024-03-02T12:11:47;99267.81;;;10.33;79.38
86143;BME280;76799;50.146;22.704;2024-03-02T12:14:12;99266.16;;;10.32;78.94
86143;BME280;76799;50.146;22.704;2024-03-02T12:16:38;99266.81;;;10.34;79.49
86143;BME280;76799;50.146;22.704;2024-03-02T12:19:05;99267.34;;;10.29;79.37
86143;BME280;76799;50.146;22.704;2024-03-02T12:21:31;99261.53;;;10.26;79.25
86143;BME280;76799;50.146;22.704;2024-03-02T12:23:56;99263.19;;;10.27;78.91
86143;BME280;76799;50.146;22.704;2024-03-02T12:26:22;99265.69;;;10.28;79.39
86143;BME280;76799;50.146;22.704;2024-03-02T12:28:47;99262.53;;;10.25;79.37
86143;BME280;76799;50.146;22.704;2024-03-02T12:31:13;99263.53;;;10.24;79.30
86143;BME280;76799;50.146;22.704;2024-03-02T12:33:40;99261.41;;;10.20;79.76
86143;BME280;76799;50.146;22.704;2024-03-02T12:36:09;99262.25;;;10.12;79.90
86143;BME280;76799;50.146;22.704;2024-03-02T12:38:34;99260.78;;;10.10;79.89
86143;BME280;76799;50.146;22.704;2024-03-02T12:41:00;99267.56;;;10.12;79.71
86143;BME280;76799;50.146;22.704;2024-03-02T12:43:30;99258.31;;;10.08;79.62
86143;BME280;76799;50.146;22.704;2024-03-02T12:45:56;99264.41;;;10.09;79.49
86143;BME280;76799;50.146;22.704;2024-03-02T12:48:21;99257.31;;;10.09;79.36
86143;BME280;76799;50.146;22.704;2024-03-02T12:50:47;99263.25;;;10.11;79.43
86143;BME280;76799;50.146;22.704;2024-03-02T12:53:16;99252.16;;;10.16;79.87
86143;BME280;76799;50.146;22.704;2024-03-02T12:55:42;99256.28;;;10.18;80.06
86143;BME280;76799;50.146;22.704;2024-03-02T12:58:08;99256.28;;;10.18;79.67
86143;BME280;76799;50.146;22.704;2024-03-02T13:00:33;99248.34;;;10.18;79.91
86143;BME280;76799;50.146;22.704;2024-03-02T13:03:00;99261.88;;;10.23;79.73